sensor_id;sensor_type;location;lat;lon;timestamp;pressure;altitude;pressure_sealevel;temperature;humidity
8253;BME280;61313;48.396;10.008;2023-05-20T00:00:48;96233.03;;;13.53;66.09
8253;BME280;61313;48.396;10.008;2023-05-20T00:03:17;96221.47;;;13.55;65.95
8253;BME280;61313;48.396;10.008;2023-05-20T00:05:44;96233.88;;;13.53;66.01
8253;BME280;61313;48.396;10.008;2023-05-20T00:08:10;96225.50;;;13.47;66.85
8253;BME280;61313;48.396;10.008;2023-05-20T00:10:35;96230.31;;;13.54;66.02
8253;BME280;61313;48.396;10.008;2023-05-20T00:13:01;96233.47;;;13.45;66.77
8253;BME280;61313;48.396;10.008;2023-05-20T00:15:27;96226.72;;;13.55;66.22
8253;BME280;61313;48.396;10.008;2023-05-20T00:17:53;96222.19;;;13.43;66.75
8253;BME280;61313;48.396;10.008;2023-05-20T00:20:19;96231.53;;;13.49;66.86
8253;BME280;61313;48.396;10.008;2023-05-20T00:22:44;96224.81;;;13.43;67.04
8253;BME280;61313;48.396;10.008;2023-05-20T00:25:09;96227.25;;;13.46;66.87
8253;BME280;61313;48.396;10.008;2023-05-20T00:27:35;96228.72;;;13.52;66.94
8253;BME280;61313;48.396;10.008;2023-05-20T00:30:01;96216.50;;;13.35;67.70
8253;BME280;61313;48.396;10.008;2023-05-20T00:32:26;96218.28;;;13.34;67.22
8253;BME280;61313;48.396;10.008;2023-05-20T00:34:58;96218.19;;;13.36;67.33
8253;BME280;61313;48.396;10.008;2023-05-20T00:37:24;96212.66;;;13.41;67.26
8253;BME280;61313;48.396;10.008;2023-05-20T00:39:50;96209.78;;;13.29;67.40
8253;BME280;61313;48.396;10.008;2023-05-20T00:42:25;96201.47;;;13.21;67.93
8253;BME280;61313;48.396;10.008;2023-05-20T00:44:52;96203.91;;;13.24;68.11
8253;BME280;61313;48.396;10.008;2023-05-20T00:47:20;96199.41;;;13.26;67.72
8253;BME280;61313;48.396;10.008;2023-05-20T00:49:48;96203.25;;;13.21;68.58
8253;BME280;61313;48.396;10.008;2023-05-20T00:52:14;96196.94;;;13.39;67.95
8253;BME280;61313;48.396;10.008;2023-05-20T00:54:41;96200.13;;;13.30;68.38
8253;BME280;61313;48.396;10.008;2023-05-20T00:57:07;96195.94;;;13.26;68.69
8253;BME280;61313;48.396;10.008;2023-05-20T00:59:35;96192.53;;;13.24;67.85
8253;BME280;61313;48.396;10.008;2023-05-20T01:02:01;96194.66;;;13.17;68.89
8253;BME280;61313;48.396;10.008;2023-05-20T01:04:27;96198.66;;;13.24;68.33
8253;BME280;61313;48.396;10.008;2023-05-20T01:06:53;96198.09;;;13.03;69.68
8253;BME280;61313;48.396;10.008;2023-05-20T01:09:20;96198.28;;;13.00;69.38
8253;BME280;61313;48.396;10.008;2023-05-20T01:11:54;96206.09;;;13.02;69.25
8253;BME280;61313;48.396;10.008;2023-05-20T01:14:22;96208.28;;;13.09;68.96
8253;BME280;61313;48.396;10.008;2023-05-20T01:16:51;96202.31;;;13.06;68.76
8253;BME280;61313;48.396;10.008;2023-05-20T01:21:54;96196.91;;;13.09;68.71
8253;BME280;61313;48.396;10.008;2023-05-20T01:24:20;96191.13;;;13.18;68.93
8253;BME280;61313;48.396;10.008;2023-05-20T01:26:46;96193.06;;;13.14;68.86
8253;BME280;61313;48.396;10.008;2023-05-20T01:29:12;96196.66;;;13.13;69.16
8253;BME280;61313;48.396;10.008;2023-05-20T01:31:43;96191.50;;;13.26;68.20
8253;BME280;61313;48.396;10.008;2023-05-20T01:34:10;96190.25;;;13.18;68.72
8253;BME280;61313;48.396;10.008;2023-05-20T01:36:37;96192.88;;;13.18;68.49
8253;BME280;61313;48.396;10.008;2023-05-20T01:39:03;96188.47;;;13.18;68.46
8253;BME280;61313;48.396;10.008;2023-05-20T01:41:30;96188.38;;;13.20;68.20
8253;BME280;61313;48.396;10.008;2023-05-20T01:43:59;96184.66;;;13.08;68.99
8253;BME280;61313;48.396;10.008;2023-05-20T01:46:24;96189.47;;;13.16;69.34
8253;BME280;61313;48.396;10.008;2023-05-20T01:48:50;96186.75;;;13.17;69.00
8253;BME280;61313;48.396;10.008;2023-05-20T01:51:15;96189.66;;;13.12;68.95
8253;BME280;61313;48.396;10.008;2023-05-20T01:53:42;96183.28;;;13.17;68.91
8253;BME280;61313;48.396;10.008;2023-05-20T01:56:07;96184.38;;;13.12;69.37
8253;BME280;61313;48.396;10.008;2023-05-20T01:58:32;96176.66;;;13.09;69.03
8253;BME280;61313;48.396;10.008;2023-05-20T02:00:58;96182.34;;;13.18;69.20
8253;BME280;61313;48.396;10.008;2023-05-20T02:03:24;96175.66;;;13.12;69.33
8253;BME280;61313;48.396;10.008;2023-05-20T02:05:49;96177.00;;;13.03;69.13
8253;BME280;61313;48.396;10.008;2023-05-20T02:08:15;96180.06;;;13.11;69.04
8253;BME280;61313;48.396;10.008;2023-05-20T02:10:40;96175.72;;;13.10;69.13
8253;BME280;61313;48.396;10.008;2023-05-20T02:13:06;96181.31;;;13.20;69.22
8253;BME280;61313;48.396;10.008;2023-05-20T02:15:31;96181.34;;;13.04;69.67
8253;BME280;61313;48.396;10.008;2023-05-20T02:17:56;96174.13;;;12.92;70.89
8253;BME280;61313;48.396;10.008;2023-05-20T02:20:22;96181.50;;;13.01;70.13
8253;BME280;61313;48.396;10.008;2023-05-20T02:22:47;96171.94;;;13.00;70.42
8253;BME280;61313;48.396;10.008;2023-05-20T02:25:13;96172.19;;;12.96;70.03
8253;BME280;61313;48.396;10.008;2023-05-20T02:27:38;96176.25;;;13.01;69.99
8253;BME280;61313;48.396;10.008;2023-05-20T02:30:05;96165.97;;;12.97;70.89
8253;BME280;61313;48.396;10.008;2023-05-20T02:32:31;96169.56;;;12.96;70.93
8253;BME280;61313;48.396;10.008;2023-05-20T02:34:57;96169.22;;;13.02;70.62
8253;BME280;61313;48.396;10.008;2023-05-20T02:37:23;96166.34;;;12.90;70.49
8253;BME280;61313;48.396;10.008;2023-05-20T02:39:48;96172.88;;;12.99;70.00
8253;BME280;61313;48.396;10.008;2023-05-20T02:42:14;96165.56;;;13.04;70.31
8253;BME280;61313;48.396;10.008;2023-05-20T02:44:39;96169.56;;;12.96;70.60
8253;BME280;61313;48.396;10.008;2023-05-20T02:47:05;96171.66;;;13.05;71.11
8253;BME280;61313;48.396;10.008;2023-05-20T02:49:30;96169.22;;;13.02;70.37
8253;BME280;61313;48.396;10.008;2023-05-20T02:51:56;96174.13;;;12.92;70.86
8253;BME280;61313;48.396;10.008;2023-05-20T02:54:21;96163.00;;;13.03;70.16
8253;BME280;61313;48.396;10.008;2023-05-20T02:56:47;96168.34;;;13.01;70.61
8253;BME280;61313;48.396;10.008;2023-05-20T02:59:12;96157.34;;;12.95;70.70
8253;BME280;61313;48.396;10.008;2023-05-20T03:01:37;96159.88;;;12.80;70.71
8253;BME280;61313;48.396;10.008;2023-05-20T03:04:04;96162.00;;;12.89;70.98
8253;BME280;61313;48.396;10.008;2023-05-20T03:06:30;96168.88;;;12.92;71.43
8253;BME280;61313;48.396;10.008;2023-05-20T03:08:58;96173.03;;;12.96;71.06
8253;BME280;61313;48.396;10.008;2023-05-20T03:11:23;96174.13;;;12.92;71.00
8253;BME280;61313;48.396;10.008;2023-05-20T03:13:49;96179.50;;;12.90;71.18
8253;BME280;61313;48.396;10.008;2023-05-20T03:16:14;96180.34;;;12.91;71.88
8253;BME280;61313;48.396;10.008;2023-05-20T03:18:40;96179.25;;;12.95;70.61
8253;BME280;61313;48.396;10.008;2023-05-20T03:21:06;96176.03;;;12.90;71.28
8253;BME280;61313;48.396;10.008;2023-05-20T03:23:32;96179.31;;;12.93;71.37
8253;BME280;61313;48.396;10.008;2023-05-20T03:25:57;96170.84;;;12.88;71.17
8253;BME280;61313;48.396;10.008;2023-05-20T03:28:23;96171.78;;;12.87;70.93
8253;BME280;61313;48.396;10.008;2023-05-20T03:30:48;96182.41;;;12.86;72.10
8253;BME280;61313;48.396;10.008;2023-05-20T03:33:14;96175.69;;;12.80;71.02
8253;BME280;61313;48.396;10.008;2023-05-20T03:35:40;96166.53;;;12.87;71.32
8253;BME280;61313;48.396;10.008;2023-05-20T03:38:05;96159.88;;;12.80;72.11
8253;BME280;61313;48.396;10.008;2023-05-20T03:40:31;96158.50;;;12.89;71.41
8253;BME280;61313;48.396;10.008;2023-05-20T03:42:56;96166.84;;;12.81;71.93
8253;BME280;61313;48.396;10.008;2023-05-20T03:45:22;96159.88;;;12.80;72.11
8253;BME280;61313;48.396;10.008;2023-05-20T03:47:47;96171.53;;;12.76;72.10
8253;BME280;61313;48.396;10.008;2023-05-20T03:50:13;96165.94;;;12.66;72.16
8253;BME280;61313;48.396;10.008;2023-05-20T03:52:38;96164.47;;;12.77;72.84
8253;BME280;61313;48.396;10.008;2023-05-20T03:55:05;96160.91;;;12.78;72.06
8253;BME280;61313;48.396;10.008;2023-05-20T03:57:30;96169.06;;;12.73;72.49
8253;BME280;61313;48.396;10.008;2023-05-20T03:59:56;96165.84;;;12.84;72.22
8253;BME280;61313;48.396;10.008;2023-05-20T04:02:21;96170.84;;;12.88;71.77
8253;BME280;61313;48.396;10.008;2023-05-20T04:04:47;96160.88;;;12.93;71.66
8253;BME280;61313;48.396;10.008;2023-05-20T04:07:12;96161.25;;;12.71;72.34
8253;BME280;61313;48.396;10.008;2023-05-20T04:09:38;96156.91;;;12.70;71.93
8253;BME280;61313;48.396;10.008;2023-05-20T04:12:04;96168.97;;;12.75;72.25
8253;BME280;61313;48.396;10.008;2023-05-20T04:14:30;96161.00;;;12.76;73.38
8253;BME280;61313;48.396;10.008;2023-05-20T04:16:58;96153.53;;;12.68;72.33
8253;BME280;61313;48.396;10.008;2023-05-20T04:19:23;96145.47;;;12.71;72.86
8253;BME280;61313;48.396;10.008;2023-05-20T04:21:52;96153.38;;;12.71;73.53
8253;BME280;61313;48.396;10.008;2023-05-20T04:24:18;96161.69;;;12.64;72.82
8253;BME280;61313;48.396;10.008;2023-05-20T04:26:44;96168.06;;;12.76;72.65
8253;BME280;61313;48.396;10.008;2023-05-20T04:29:09;96160.91;;;12.78;72.67
8253;BME280;61313;48.396;10.008;2023-05-20T04:31:36;96157.59;;;12.74;72.79
8253;BME280;61313;48.396;10.008;2023-05-20T04:34:02;96164.22;;;12.65;73.68
8253;BME280;61313;48.396;10.008;2023-05-20T04:36:29;96171.72;;;12.57;73.53
8253;BME280;61313;48.396;10.008;2023-05-20T04:38:55;96168.06;;;12.60;74.09
8253;BME280;61313;48.396;10.008;2023-05-20T04:41:20;96166.41;;;12.73;73.49
8253;BME280;61313;48.396;10.008;2023-05-20T04:43:46;96163.31;;;12.66;73.40
8253;BME280;61313;48.396;10.008;2023-05-20T04:46:12;96161.84;;;12.61;73.38
8253;BME280;61313;48.396;10.008;2023-05-20T04:48:38;96159.97;;;12.63;73.87
8253;BME280;61313;48.396;10.008;2023-05-20T04:51:03;96155.16;;;12.55;73.99
8253;BME280;61313;48.396;10.008;2023-05-20T04:53:29;96153.09;;;12.60;73.41
8253;BME280;61313;48.396;10.008;2023-05-20T04:55:58;96153.94;;;12.61;73.87
8253;BME280;61313;48.396;10.008;2023-05-20T04:58:24;96151.06;;;12.65;73.43
8253;BME280;61313;48.396;10.008;2023-05-20T05:00:50;96146.81;;;12.63;73.59
8253;BME280;61313;48.396;10.008;2023-05-20T05:03:16;96151.06;;;12.65;73.67
8253;BME280;61313;48.396;10.008;2023-05-20T05:05:42;96151.06;;;12.65;73.49
8253;BME280;61313;48.396;10.008;2023-05-20T05:08:08;96146.31;;;12.56;74.35
8253;BME280;61313;48.396;10.008;2023-05-20T05:10:35;96150.72;;;12.56;73.87
8253;BME280;61313;48.396;10.008;2023-05-20T05:13:01;96149.72;;;12.58;74.36
8253;BME280;61313;48.396;10.008;2023-05-20T05:15:27;96146.56;;;12.52;74.37
8253;BME280;61313;48.396;10.008;2023-05-20T05:17:53;96148.53;;;12.64;73.88
8253;BME280;61313;48.396;10.008;2023-05-20T05:20:19;96158.72;;;12.70;73.99
8253;BME280;61313;48.396;10.008;2023-05-20T05:22:45;96159.72;;;12.67;73.38
8253;BME280;61313;48.396;10.008;2023-05-20T05:25:11;96161.25;;;12.56;74.37
8253;BME280;61313;48.396;10.008;2023-05-20T05:27:37;96162.69;;;12.61;73.61
8253;BME280;61313;48.396;10.008;2023-05-20T05:30:03;96160.06;;;12.61;73.99
8253;BME280;61313;48.396;10.008;2023-05-20T05:32:29;96165.00;;;12.52;74.00
8253;BME280;61313;48.396;10.008;2023-05-20T05:34:55;96165.69;;;12.55;73.80
8253;BME280;61313;48.396;10.008;2023-05-20T05:37:20;96159.22;;;12.61;73.42
8253;BME280;61313;48.396;10.008;2023-05-20T05:39:46;96165.16;;;12.48;73.85
8253;BME280;61313;48.396;10.008;2023-05-20T05:42:11;96165.75;;;12.54;74.02
8253;BME280;61313;48.396;10.008;2023-05-20T05:44:37;96149.19;;;12.52;73.21
8253;BME280;61313;48.396;10.008;2023-05-20T05:47:03;96152.25;;;12.60;73.08
8253;BME280;61313;48.396;10.008;2023-05-20T05:49:30;96150.47;;;12.60;73.54
8253;BME280;61313;48.396;10.008;2023-05-20T05:51:56;96153.88;;;12.46;73.42
8253;BME280;61313;48.396;10.008;2023-05-20T05:54:22;96151.41;;;12.43;74.05
8253;BME280;61313;48.396;10.008;2023-05-20T05:56:47;96157.34;;;12.47;73.71
8253;BME280;61313;48.396;10.008;2023-05-20T05:59:15;96149.38;;;12.48;74.00
8253;BME280;61313;48.396;10.008;2023-05-20T06:01:40;96146.31;;;12.56;73.40
8253;BME280;61313;48.396;10.008;2023-05-20T06:04:05;96146.16;;;12.43;74.02
8253;BME280;61313;48.396;10.008;2023-05-20T06:06:32;96133.66;;;12.63;73.37
8253;BME280;61313;48.396;10.008;2023-05-20T06:08:58;96129.34;;;12.62;72.75
8253;BME280;61313;48.396;10.008;2023-05-20T06:11:23;96121.50;;;12.76;72.43
8253;BME280;61313;48.396;10.008;2023-05-20T06:13:49;96122.94;;;12.66;72.99
8253;BME280;61313;48.396;10.008;2023-05-20T06:16:15;96121.09;;;12.68;72.46
8253;BME280;61313;48.396;10.008;2023-05-20T06:18:41;96134.59;;;12.62;72.71
8253;BME280;61313;48.396;10.008;2023-05-20T06:21:07;96133.06;;;12.58;72.42
8253;BME280;61313;48.396;10.008;2023-05-20T06:23:32;96133.59;;;12.48;73.17
8253;BME280;61313;48.396;10.008;2023-05-20T06:25:58;96141.75;;;12.60;72.04
8253;BME280;61313;48.396;10.008;2023-05-20T06:28:24;96138.53;;;12.55;74.05
8253;BME280;61313;48.396;10.008;2023-05-20T06:30:50;96139.88;;;12.62;72.77
8253;BME280;61313;48.396;10.008;2023-05-20T06:33:17;96148.09;;;12.56;73.59
8253;BME280;61313;48.396;10.008;2023-05-20T06:35:43;96145.97;;;12.62;73.25
8253;BME280;61313;48.396;10.008;2023-05-20T06:38:09;96141.91;;;12.57;73.00
8253;BME280;61313;48.396;10.008;2023-05-20T06:40:34;96151.25;;;12.62;73.04
8253;BME280;61313;48.396;10.008;2023-05-20T06:43:00;96140.63;;;12.64;72.47
8253;BME280;61313;48.396;10.008;2023-05-20T06:45:25;96144.38;;;12.60;73.01
8253;BME280;61313;48.396;10.008;2023-05-20T06:47:50;96141.75;;;12.60;73.89
8253;BME280;61313;48.396;10.008;2023-05-20T06:50:18;96151.06;;;12.65;73.47
8253;BME280;61313;48.396;10.008;2023-05-20T06:52:44;96146.50;;;12.69;72.84
8253;BME280;61313;48.396;10.008;2023-05-20T06:55:09;96147.72;;;12.78;72.80
8253;BME280;61313;48.396;10.008;2023-05-20T06:57:35;96145.59;;;12.84;72.58
8253;BME280;61313;48.396;10.008;2023-05-20T07:00:01;96142.06;;;12.85;71.74
8253;BME280;61313;48.396;10.008;2023-05-20T07:02:26;96136.34;;;12.77;72.61
8253;BME280;61313;48.396;10.008;2023-05-20T07:04:52;96148.34;;;12.83;72.57
8253;BME280;61313;48.396;10.008;2023-05-20T07:07:17;96151.31;;;12.92;72.44
8253;BME280;61313;48.396;10.008;2023-05-20T07:09:44;96156.31;;;12.97;72.32
8253;BME280;61313;48.396;10.008;2023-05-20T07:12:09;96144.91;;;12.97;71.61
8253;BME280;61313;48.396;10.008;2023-05-20T07:14:35;96136.00;;;12.99;71.43
8253;BME280;61313;48.396;10.008;2023-05-20T07:17:00;96128.00;;;12.85;71.79
8253;BME280;61313;48.396;10.008;2023-05-20T07:19:25;96126.66;;;12.93;72.11
8253;BME280;61313;48.396;10.008;2023-05-20T07:21:51;96119.50;;;12.96;71.21
8253;BME280;61313;48.396;10.008;2023-05-20T07:24:16;96120.63;;;12.91;71.56
8253;BME280;61313;48.396;10.008;2023-05-20T07:26:42;96116.34;;;13.05;71.42
8253;BME280;61313;48.396;10.008;2023-05-20T07:29:08;96107.34;;;13.09;70.90
8253;BME280;61313;48.396;10.008;2023-05-20T07:31:34;96100.50;;;13.21;71.11
8253;BME280;61313;48.396;10.008;2023-05-20T07:34:00;96105.97;;;13.32;70.54
8253;BME280;61313;48.396;10.008;2023-05-20T07:36:28;96111.03;;;13.21;69.78
8253;BME280;61313;48.396;10.008;2023-05-20T07:38:54;96107.16;;;13.12;70.24
8253;BME280;61313;48.396;10.008;2023-05-20T07:41:19;96117.09;;;13.07;70.47
8253;BME280;61313;48.396;10.008;2023-05-20T07:43:45;96111.34;;;13.00;71.00
8253;BME280;61313;48.396;10.008;2023-05-20T07:46:11;96112.34;;;13.13;70.47
8253;BME280;61313;48.396;10.008;2023-05-20T07:48:36;96117.69;;;13.12;70.81
8253;BME280;61313;48.396;10.008;2023-05-20T07:51:02;96111.00;;;13.06;70.35
8253;BME280;61313;48.396;10.008;2023-05-20T07:53:27;96126.25;;;13.16;69.79
8253;BME280;61313;48.396;10.008;2023-05-20T07:55:52;96104.94;;;13.34;70.47
8253;BME280;61313;48.396;10.008;2023-05-20T07:58:18;96103.84;;;13.53;69.40
8253;BME280;61313;48.396;10.008;2023-05-20T08:00:43;96109.13;;;13.67;68.82
8253;BME280;61313;48.396;10.008;2023-05-20T08:03:09;96107.66;;;13.77;68.51
8253;BME280;61313;48.396;10.008;2023-05-20T08:05:38;96107.25;;;13.98;67.86
8253;BME280;61313;48.396;10.008;2023-05-20T08:08:03;96100.50;;;13.94;68.12
8253;BME280;61313;48.396;10.008;2023-05-20T08:10:29;96104.16;;;13.91;68.21
8253;BME280;61313;48.396;10.008;2023-05-20T08:12:55;96098.69;;;14.09;67.58
8253;BME280;61313;48.396;10.008;2023-05-20T08:15:21;96114.25;;;13.99;67.57
8253;BME280;61313;48.396;10.008;2023-05-20T08:17:46;96112.81;;;13.93;68.10
8253;BME280;61313;48.396;10.008;2023-05-20T08:20:12;96115.72;;;13.89;68.11
8253;BME280;61313;48.396;10.008;2023-05-20T08:22:37;96115.16;;;13.98;68.18
8253;BME280;61313;48.396;10.008;2023-05-20T08:25:06;96122.31;;;13.96;67.88
8253;BME280;61313;48.396;10.008;2023-05-20T08:27:32;96111.88;;;14.09;68.00
8253;BME280;61313;48.396;10.008;2023-05-20T08:29:57;96112.81;;;14.22;67.46
8253;BME280;61313;48.396;10.008;2023-05-20T08:32:22;96107.63;;;14.21;67.46
8253;BME280;61313;48.396;10.008;2023-05-20T08:34:48;96116.75;;;14.29;67.44
8253;BME280;61313;48.396;10.008;2023-05-20T08:37:13;96109.66;;;14.44;66.63
8253;BME280;61313;48.396;10.008;2023-05-20T08:39:39;96108.84;;;14.71;66.05
8253;BME280;61313;48.396;10.008;2023-05-20T08:42:05;96102.81;;;14.69;66.07
8253;BME280;61313;48.396;10.008;2023-05-20T08:44:33;96108.63;;;14.74;64.91
8253;BME280;61313;48.396;10.008;2023-05-20T08:46:58;96104.53;;;14.82;64.56
8253;BME280;61313;48.396;10.008;2023-05-20T08:49:25;96103.09;;;14.91;65.08
8253;BME280;61313;48.396;10.008;2023-05-20T08:51:51;96097.69;;;15.20;64.74
8253;BME280;61313;48.396;10.008;2023-05-20T08:54:16;96100.72;;;15.92;61.73
8253;BME280;61313;48.396;10.008;2023-05-20T08:56:44;96092.97;;;16.02;61.32
8253;BME280;61313;48.396;10.008;2023-05-20T08:59:10;96102.28;;;15.82;61.88
8253;BME280;61313;48.396;10.008;2023-05-20T09:01:40;96102.75;;;15.23;63.44
8253;BME280;61313;48.396;10.008;2023-05-20T09:04:07;96097.88;;;15.17;63.18
8253;BME280;61313;48.396;10.008;2023-05-20T09:06:44;96101.31;;;14.92;64.23
8253;BME280;61313;48.396;10.008;2023-05-20T09:09:13;96089.97;;;15.30;62.58
8253;BME280;61313;48.396;10.008;2023-05-20T09:11:39;96101.72;;;15.38;62.77
8253;BME280;61313;48.396;10.008;2023-05-20T09:14:06;96106.97;;;15.25;62.79
8253;BME280;61313;48.396;10.008;2023-05-20T09:16:31;96096.22;;;15.29;62.18
8253;BME280;61313;48.396;10.008;2023-05-20T09:18:57;96090.38;;;15.23;62.84
8253;BME280;61313;48.396;10.008;2023-05-20T09:21:29;96095.16;;;15.31;62.24
8253;BME280;61313;48.396;10.008;2023-05-20T09:23:55;96091.13;;;15.25;62.47
8253;BME280;61313;48.396;10.008;2023-05-20T09:26:27;96089.22;;;15.66;61.55
8253;BME280;61313;48.396;10.008;2023-05-20T09:28:55;96097.28;;;15.52;61.67
8253;BME280;61313;48.396;10.008;2023-05-20T09:31:25;96093.16;;;15.60;61.59
8253;BME280;61313;48.396;10.008;2023-05-20T09:33:50;96092.09;;;15.63;61.73
8253;BME280;61313;48.396;10.008;2023-05-20T09:36:18;96089.03;;;16.07;60.98
8253;BME280;61313;48.396;10.008;2023-05-20T09:38:45;96089.22;;;16.17;59.80
8253;BME280;61313;48.396;10.008;2023-05-20T09:41:12;96081.06;;;16.57;58.65
8253;BME280;61313;48.396;10.008;2023-05-20T09:43:41;96069.78;;;16.66;59.28
8253;BME280;61313;48.396;10.008;2023-05-20T09:46:07;96066.91;;;17.29;57.32
8253;BME280;61313;48.396;10.008;2023-05-20T09:48:34;96067.59;;;17.08;57.36
8253;BME280;61313;48.396;10.008;2023-05-20T09:51:04;96057.81;;;17.55;55.85
8253;BME280;61313;48.396;10.008;2023-05-20T09:53:29;96058.53;;;17.46;56.36
8253;BME280;61313;48.396;10.008;2023-05-20T09:55:55;96055.00;;;17.34;57.15
8253;BME280;61313;48.396;10.008;2023-05-20T09:58:24;96059.97;;;17.04;57.09
8253;BME280;61313;48.396;10.008;2023-05-20T10:00:51;96071.31;;;16.82;58.26
8253;BME280;61313;48.396;10.008;2023-05-20T10:03:23;96050.41;;;17.25;57.86
8253;BME280;61313;48.396;10.008;2023-05-20T10:11:49;96041.88;;;17.44;56.84
8253;BME280;61313;48.396;10.008;2023-05-20T10:20:13;96034.38;;;18.51;54.56
8253;BME280;61313;48.396;10.008;2023-05-20T10:22:38;96024.88;;;18.26;54.61
8253;BME280;61313;48.396;10.008;2023-05-20T10:25:06;96029.34;;;18.25;55.17
8253;BME280;61313;48.396;10.008;2023-05-20T10:27:44;96027.44;;;18.05;55.24
8253;BME280;61313;48.396;10.008;2023-05-20T10:30:20;96038.56;;;17.98;55.47
8253;BME280;61313;48.396;10.008;2023-05-20T10:32:54;96033.50;;;17.84;55.33
8253;BME280;61313;48.396;10.008;2023-05-20T10:35:24;96036.75;;;17.88;55.99
8253;BME280;61313;48.396;10.008;2023-05-20T10:37:51;96036.84;;;17.97;55.24
8253;BME280;61313;48.396;10.008;2023-05-20T10:40:19;96037.09;;;18.06;54.81
8253;BME280;61313;48.396;10.008;2023-05-20T10:42:44;96035.91;;;18.10;54.16
8253;BME280;61313;48.396;10.008;2023-05-20T10:45:11;96018.47;;;18.28;53.90
8253;BME280;61313;48.396;10.008;2023-05-20T10:47:41;96020.44;;;18.26;54.05
8253;BME280;61313;48.396;10.008;2023-05-20T10:50:46;96021.16;;;18.06;54.13
8253;BME280;61313;48.396;10.008;2023-05-20T10:53:13;96014.88;;;18.07;53.82
8253;BME280;61313;48.396;10.008;2023-05-20T10:55:40;96015.81;;;18.28;53.74
8253;BME280;61313;48.396;10.008;2023-05-20T10:58:06;96018.16;;;18.10;54.26
8253;BME280;61313;48.396;10.008;2023-05-20T11:00:35;96003.16;;;18.20;54.53
8253;BME280;61313;48.396;10.008;2023-05-20T11:03:03;96003.03;;;18.22;54.46
8253;BME280;61313;48.396;10.008;2023-05-20T11:05:29;95999.75;;;18.30;54.14
8253;BME280;61313;48.396;10.008;2023-05-20T11:08:02;96007.16;;;18.26;54.16
8253;BME280;61313;48.396;10.008;2023-05-20T11:10:28;96005.41;;;18.36;54.56
8253;BME280;61313;48.396;10.008;2023-05-20T11:12:56;96001.88;;;18.47;53.80
8253;BME280;61313;48.396;10.008;2023-05-20T11:15:22;96008.53;;;18.41;53.28
8253;BME280;61313;48.396;10.008;2023-05-20T11:17:56;95998.16;;;18.50;53.90
8253;BME280;61313;48.396;10.008;2023-05-20T11:20:22;95997.66;;;18.45;54.43
8253;BME280;61313;48.396;10.008;2023-05-20T11:22:52;96000.38;;;18.33;53.90
8253;BME280;61313;48.396;10.008;2023-05-20T11:25:19;96000.56;;;18.41;54.09
8253;BME280;61313;48.396;10.008;2023-05-20T11:27:45;96004.03;;;18.10;54.47
8253;BME280;61313;48.396;10.008;2023-05-20T11:30:13;96000.41;;;17.99;54.01
8253;BME280;61313;48.396;10.008;2023-05-20T11:33:02;96003.16;;;18.09;54.30
8253;BME280;61313;48.396;10.008;2023-05-20T11:35:29;95998.94;;;18.07;54.77
8253;BME280;61313;48.396;10.008;2023-05-20T11:38:00;95987.94;;;18.23;54.75
8253;BME280;61313;48.396;10.008;2023-05-20T11:40:26;95987.19;;;18.32;54.67
8253;BME280;61313;48.396;10.008;2023-05-20T11:42:56;95984.75;;;18.40;53.87
8253;BME280;61313;48.396;10.008;2023-05-20T11:45:22;95978.84;;;18.36;54.03
8253;BME280;61313;48.396;10.008;2023-05-20T11:47:58;95970.31;;;18.54;54.20
8253;BME280;61313;48.396;10.008;2023-05-20T11:50:24;95971.88;;;18.56;53.77
8253;BME280;61313;48.396;10.008;2023-05-20T11:52:59;95963.22;;;18.87;53.45
8253;BME280;61313;48.396;10.008;2023-05-20T11:55:26;95963.34;;;19.06;52.87
8253;BME280;61313;48.396;10.008;2023-05-20T11:57:53;95963.53;;;19.14;52.84
8253;BME280;61313;48.396;10.008;2023-05-20T12:00:18;95960.22;;;19.22;52.19
8253;BME280;61313;48.396;10.008;2023-05-20T12:02:44;95952.91;;;19.14;53.03
8253;BME280;61313;48.396;10.008;2023-05-20T12:05:10;95962.81;;;19.12;53.04
8253;BME280;61313;48.396;10.008;2023-05-20T12:07:36;95948.97;;;19.09;53.36
8253;BME280;61313;48.396;10.008;2023-05-20T12:10:02;95956.94;;;18.88;52.38
8253;BME280;61313;48.396;10.008;2023-05-20T12:12:28;95963.47;;;19.04;52.90
8253;BME280;61313;48.396;10.008;2023-05-20T12:14:54;95957.44;;;19.23;52.42
8253;BME280;61313;48.396;10.008;2023-05-20T12:17:19;95945.81;;;19.55;51.97
8253;BME280;61313;48.396;10.008;2023-05-20T12:19:45;95951.50;;;19.41;51.85
8253;BME280;61313;48.396;10.008;2023-05-20T12:22:10;95956.38;;;19.36;52.29
8253;BME280;61313;48.396;10.008;2023-05-20T12:24:35;95944.25;;;19.53;52.10
8253;BME280;61313;48.396;10.008;2023-05-20T12:27:01;95952.88;;;19.66;51.88
8253;BME280;61313;48.396;10.008;2023-05-20T12:29:28;95941.69;;;19.72;50.96
8253;BME280;61313;48.396;10.008;2023-05-20T12:31:54;95934.72;;;19.81;51.41
8253;BME280;61313;48.396;10.008;2023-05-20T12:34:19;95932.59;;;19.44;51.69
8253;BME280;61313;48.396;10.008;2023-05-20T12:36:45;95936.16;;;19.23;52.51
8253;BME280;61313;48.396;10.008;2023-05-20T12:39:11;95946.00;;;19.33;52.81
8253;BME280;61313;48.396;10.008;2023-05-20T12:41:37;95947.72;;;19.43;52.69
8253;BME280;61313;48.396;10.008;2023-05-20T12:44:03;95936.88;;;19.56;51.03
8253;BME280;61313;48.396;10.008;2023-05-20T12:46:28;95948.63;;;19.54;51.32
8253;BME280;61313;48.396;10.008;2023-05-20T12:48:54;95940.94;;;19.60;51.15
8253;BME280;61313;48.396;10.008;2023-05-20T12:51:19;95932.38;;;19.57;51.69
8253;BME280;61313;48.396;10.008;2023-05-20T12:53:45;95939.81;;;19.63;51.29
8253;BME280;61313;48.396;10.008;2023-05-20T12:56:10;95937.66;;;19.47;51.43
8253;BME280;61313;48.396;10.008;2023-05-20T12:58:36;95932.09;;;19.60;51.54
8253;BME280;61313;48.396;10.008;2023-05-20T13:01:01;95935.03;;;19.57;51.49
8253;BME280;61313;48.396;10.008;2023-05-20T13:03:27;95932.31;;;19.68;51.77
8253;BME280;61313;48.396;10.008;2023-05-20T13:05:52;95923.16;;;19.61;51.78
8253;BME280;61313;48.396;10.008;2023-05-20T13:08:17;95916.19;;;19.70;50.86
8253;BME280;61313;48.396;10.008;2023-05-20T13:10:43;95914.94;;;19.74;51.37